createdAt,value
2023-03-30T00:01:32.341Z,8.50
2023-03-30T00:04:02.879Z,8.40
2023-03-30T00:06:34.330Z,8.40
2023-03-30T00:09:06.330Z,8.40
2023-03-30T00:11:38.033Z,8.40
2023-03-30T00:14:08.018Z,8.40
2023-03-30T00:16:40.671Z,8.40
2023-03-30T00:19:10.790Z,8.30
2023-03-30T00:21:40.741Z,8.40
2023-03-30T00:24:10.909Z,8.40
2023-03-30T00:26:41.022Z,8.40
2023-03-30T00:29:11.100Z,8.30
2023-03-30T00:31:43.728Z,8.30
2023-03-30T00:34:13.715Z,8.30
2023-03-30T00:36:43.680Z,8.30
2023-03-30T00:39:13.626Z,8.30
2023-03-30T00:41:43.742Z,8.30
2023-03-30T00:44:58.716Z,8.30
2023-03-30T00:47:32.624Z,8.30
2023-03-30T00:50:02.922Z,8.30
2023-03-30T00:52:33.609Z,8.20
2023-03-30T00:55:03.611Z,8.20
2023-03-30T00:57:34.766Z,8.20
2023-03-30T01:00:07.228Z,8.20
2023-03-30T01:02:46.378Z,8.20
2023-03-30T01:05:16.441Z,8.20
2023-03-30T01:07:50.048Z,8.20
2023-03-30T01:10:21.877Z,8.20
2023-03-30T01:12:52.066Z,8.20
2023-03-30T01:15:22.476Z,8.10
2023-03-30T01:18:14.009Z,8.10
2023-03-30T01:21:24.215Z,8.10
2023-03-30T01:24:53.718Z,8.10
2023-03-30T01:28:04.664Z,8.10
2023-03-30T01:30:58.489Z,8.10
2023-03-30T01:34:21.472Z,8.10
2023-03-30T01:37:39.957Z,8.10
2023-03-30T01:40:16.768Z,8.00
2023-03-30T01:42:58.974Z,8.00
2023-03-30T01:45:41.786Z,8.00
2023-03-30T01:48:18.211Z,8.00
2023-03-30T01:50:54.025Z,7.90
2023-03-30T01:53:33.137Z,7.90
2023-03-30T01:56:12.173Z,7.90
2023-03-30T01:58:47.501Z,7.90
2023-03-30T02:01:20.872Z,7.90
2023-03-30T02:03:56.160Z,7.90
2023-03-30T02:06:38.801Z,8.00
2023-03-30T02:09:13.237Z,7.90
2023-03-30T02:11:51.259Z,7.90
2023-03-30T02:14:23.354Z,7.90
2023-03-30T02:16:58.770Z,7.90
2023-03-30T02:19:29.281Z,7.90
2023-03-30T02:22:00.340Z,7.90
2023-03-30T02:24:33.486Z,7.90
2023-03-30T02:27:06.952Z,7.90
2023-03-30T02:29:38.101Z,7.90
2023-03-30T02:32:08.883Z,8.00
2023-03-30T02:34:58.724Z,7.90
2023-03-30T02:37:48.837Z,7.90
2023-03-30T02:40:36.428Z,7.90
2023-03-30T02:43:26.362Z,7.90
2023-03-30T02:46:10.272Z,7.90
2023-03-30T02:48:47.825Z,7.90
2023-03-30T02:51:36.114Z,7.90
2023-03-30T02:54:17.972Z,7.90
2023-03-30T02:56:54.920Z,7.90
2023-03-30T02:59:33.533Z,7.90
2023-03-30T03:02:09.797Z,7.90
2023-03-30T03:04:43.670Z,7.90
2023-03-30T03:07:15.798Z,7.90
2023-03-30T03:09:46.121Z,8.00
2023-03-30T03:12:16.274Z,7.90
2023-03-30T03:14:48.804Z,7.90
2023-03-30T03:17:22.524Z,7.90
2023-03-30T03:19:52.916Z,7.90
2023-03-30T03:22:22.886Z,7.90
2023-03-30T03:24:53.144Z,7.90
2023-03-30T03:27:23.124Z,7.90
2023-03-30T03:29:55.651Z,7.90
2023-03-30T03:32:25.677Z,7.90
2023-03-30T03:34:55.639Z,7.90
2023-03-30T03:37:25.620Z,7.90
2023-03-30T03:39:55.665Z,7.90
2023-03-30T03:42:25.750Z,7.90
2023-03-30T03:44:58.270Z,7.90
2023-03-30T03:47:28.444Z,8.00
2023-03-30T03:49:58.941Z,8.00
2023-03-30T03:52:28.882Z,7.90
2023-03-30T03:54:58.852Z,8.00
2023-03-30T03:57:28.806Z,7.90
2023-03-30T04:00:01.735Z,7.90
2023-03-30T04:02:31.779Z,8.00
2023-03-30T04:05:01.865Z,8.00
2023-03-30T04:07:31.824Z,8.00
2023-03-30T04:10:01.767Z,8.00
2023-03-30T04:12:32.769Z,8.10
2023-03-30T04:15:05.360Z,8.10
2023-03-30T04:17:37.374Z,8.10
2023-03-30T04:20:12.274Z,8.10
2023-03-30T04:22:46.239Z,8.10
2023-03-30T04:25:18.448Z,8.10
2023-03-30T04:27:50.557Z,8.10
2023-03-30T04:30:24.983Z,8.10
2023-03-30T04:33:03.257Z,8.10
2023-03-30T04:35:35.225Z,8.10
2023-03-30T04:38:06.296Z,8.10
2023-03-30T04:40:36.688Z,8.10
2023-03-30T04:43:07.343Z,8.10
2023-03-30T04:45:40.009Z,8.10
2023-03-30T04:48:10.046Z,8.10
2023-03-30T04:50:40.029Z,8.10
2023-03-30T04:53:12.641Z,8.10
2023-03-30T04:55:42.563Z,8.10
2023-03-30T04:58:14.544Z,8.10
2023-03-30T05:00:47.560Z,8.20
2023-03-30T05:03:18.973Z,8.20
2023-03-30T05:05:50.062Z,8.20
2023-03-30T05:08:20.012Z,8.20
2023-03-30T05:10:49.966Z,8.20
2023-03-30T05:13:19.959Z,8.20
2023-03-30T05:15:59.139Z,8.20
2023-03-30T05:18:29.235Z,8.20
2023-03-30T05:21:01.272Z,8.20
2023-03-30T05:23:31.526Z,8.20
2023-03-30T05:26:01.533Z,8.20
2023-03-30T05:28:32.569Z,8.20
2023-03-30T05:31:05.363Z,8.20
2023-03-30T05:33:35.775Z,8.20
2023-03-30T05:36:06.208Z,8.30
2023-03-30T05:38:36.247Z,8.30
2023-03-30T05:41:06.854Z,8.30
2023-03-30T05:43:37.097Z,8.40
2023-03-30T05:46:10.256Z,8.40
2023-03-30T05:48:40.263Z,8.40
2023-03-30T05:51:10.928Z,8.50
2023-03-30T05:53:40.911Z,8.50
2023-03-30T05:56:12.597Z,8.40
2023-03-30T05:58:42.627Z,8.50
2023-03-30T06:01:15.167Z,8.50
2023-03-30T06:03:45.428Z,8.50
2023-03-30T06:06:15.568Z,8.50
2023-03-30T06:08:45.526Z,8.50
2023-03-30T06:11:15.577Z,8.50
2023-03-30T06:13:45.613Z,8.50
2023-03-30T06:16:18.848Z,8.50
2023-03-30T06:18:48.922Z,8.50
2023-03-30T06:21:18.884Z,8.60
2023-03-30T06:23:49.269Z,8.60
2023-03-30T06:26:20.407Z,8.60
2023-03-30T06:28:50.349Z,8.60
2023-03-30T06:31:22.925Z,8.60
2023-03-30T06:33:53.060Z,8.60
2023-03-30T06:36:23.115Z,8.70
2023-03-30T06:39:13.812Z,8.60
2023-03-30T06:41:43.907Z,8.70
2023-03-30T06:44:15.014Z,8.80
2023-03-30T06:46:48.033Z,8.80
2023-03-30T06:49:18.659Z,8.90
2023-03-30T06:51:49.042Z,8.90
2023-03-30T06:54:20.583Z,9.00
2023-03-30T06:56:50.965Z,8.90
2023-03-30T06:59:21.351Z,9.00
2023-03-30T07:01:53.980Z,9.00
2023-03-30T07:04:24.142Z,9.00
2023-03-30T07:06:57.868Z,9.00
2023-03-30T07:09:28.295Z,9.00
2023-03-30T07:11:58.311Z,9.10
2023-03-30T07:14:28.365Z,9.10
2023-03-30T07:17:00.900Z,9.20
2023-03-30T07:19:31.184Z,9.30
2023-03-30T07:22:01.325Z,9.20
2023-03-30T07:24:32.173Z,9.30
2023-03-30T07:27:02.366Z,9.30
2023-03-30T07:29:32.630Z,9.60
2023-03-30T07:32:05.470Z,9.70
2023-03-30T07:34:35.472Z,10.20
2023-03-30T07:37:07.606Z,10.10
2023-03-30T07:39:37.785Z,10.10
2023-03-30T07:42:09.168Z,10.50
2023-03-30T07:44:39.141Z,10.50
2023-03-30T07:47:12.108Z,10.70
2023-03-30T07:49:42.296Z,10.70
2023-03-30T07:52:12.796Z,10.80
2023-03-30T07:54:44.233Z,10.80
2023-03-30T07:57:14.510Z,11.00
2023-03-30T07:59:44.584Z,11.10
2023-03-30T08:02:18.577Z,11.40
2023-03-30T08:04:48.818Z,11.50
2023-03-30T08:07:19.431Z,11.60
2023-03-30T08:09:49.762Z,11.70
2023-03-30T08:12:19.923Z,11.80
2023-03-30T08:14:49.860Z,12.00
2023-03-30T08:17:22.878Z,12.10
2023-03-30T08:19:52.920Z,12.10
2023-03-30T08:22:22.886Z,12.10
2023-03-30T08:24:52.816Z,12.00
2023-03-30T08:27:22.867Z,12.00
2023-03-30T08:29:54.449Z,12.10
2023-03-30T08:32:27.077Z,12.30
2023-03-30T08:34:57.061Z,12.50
2023-03-30T08:37:27.038Z,12.60
2023-03-30T08:39:57.365Z,12.70
2023-03-30T08:42:47.619Z,12.90
2023-03-30T08:45:18.818Z,13.00
2023-03-30T08:47:55.255Z,13.10
2023-03-30T08:50:35.605Z,13.30
2023-03-30T08:53:07.576Z,13.50
2023-03-30T08:55:43.280Z,13.50
2023-03-30T08:58:20.429Z,13.60
2023-03-30T09:00:57.353Z,13.70
2023-03-30T09:03:35.207Z,13.90
2023-03-30T09:06:13.709Z,14.10
2023-03-30T09:08:44.114Z,14.00
2023-03-30T09:11:22.194Z,14.10
2023-03-30T09:13:53.784Z,14.20
2023-03-30T09:16:31.783Z,14.30
2023-03-30T09:19:06.286Z,14.50
2023-03-30T09:21:36.250Z,14.60
2023-03-30T09:24:20.322Z,14.50
2023-03-30T09:26:57.897Z,14.50
2023-03-30T09:29:31.696Z,14.60
2023-03-30T09:32:08.580Z,14.70
2023-03-30T09:34:48.908Z,14.80
2023-03-30T09:37:21.937Z,14.80
2023-03-30T09:39:52.627Z,14.80
2023-03-30T09:42:34.116Z,14.90
2023-03-30T09:45:09.917Z,14.90
2023-03-30T09:47:42.628Z,14.90
2023-03-30T09:50:22.100Z,15.00
2023-03-30T09:53:00.165Z,15.00
2023-03-30T09:55:34.349Z,15.00
2023-03-30T09:58:17.671Z,15.00
2023-03-30T10:00:50.379Z,15.10
2023-03-30T10:03:24.560Z,15.10
2023-03-30T10:06:08.970Z,15.10
2023-03-30T10:08:46.279Z,15.10
2023-03-30T10:11:16.430Z,15.10
2023-03-30T10:13:46.980Z,15.20
2023-03-30T10:16:29.077Z,15.20
2023-03-30T10:19:03.497Z,15.20
2023-03-30T10:21:47.203Z,15.10
2023-03-30T10:24:29.676Z,15.10
2023-03-30T10:27:03.187Z,15.00
2023-03-30T10:29:33.999Z,15.00
2023-03-30T10:32:12.654Z,14.90
2023-03-30T10:34:44.419Z,14.90
2023-03-30T10:37:21.450Z,14.80
2023-03-30T10:39:52.707Z,14.80
2023-03-30T10:42:26.920Z,14.70
2023-03-30T10:44:59.657Z,14.70
2023-03-30T10:47:51.698Z,14.70
2023-03-30T10:50:30.159Z,14.70
2023-03-30T10:53:20.070Z,14.70
2023-03-30T10:55:55.748Z,14.60
2023-03-30T10:58:44.821Z,14.60
2023-03-30T11:01:21.034Z,14.60
2023-03-30T11:03:59.841Z,14.70
2023-03-30T11:06:38.630Z,14.70
2023-03-30T11:09:17.842Z,14.90
2023-03-30T11:11:52.880Z,15.00
2023-03-30T11:14:29.269Z,15.00
2023-03-30T11:17:04.743Z,15.00
2023-03-30T11:19:39.855Z,15.10
2023-03-30T11:22:18.077Z,15.40
2023-03-30T11:24:52.961Z,15.50
2023-03-30T11:27:30.969Z,15.50
2023-03-30T11:30:07.048Z,15.40
2023-03-30T11:32:45.133Z,15.40
2023-03-30T11:35:21.089Z,15.30
2023-03-30T11:37:58.420Z,15.30
2023-03-30T11:40:36.128Z,15.30
2023-03-30T11:43:06.237Z,15.30
2023-03-30T11:45:55.817Z,15.20
2023-03-30T11:48:51.174Z,15.20
2023-03-30T11:51:35.759Z,15.30
2023-03-30T11:54:46.948Z,15.40
2023-03-30T11:57:36.317Z,15.40
2023-03-30T12:00:28.475Z,15.50
2023-03-30T12:03:13.206Z,15.60
2023-03-30T12:05:48.852Z,16.00
2023-03-30T12:08:47.080Z,16.30
2023-03-30T12:11:24.571Z,16.50
2023-03-30T12:13:57.816Z,16.70
2023-03-30T12:16:34.643Z,17.00
2023-03-30T12:19:14.712Z,16.90
2023-03-30T12:21:54.713Z,16.70
2023-03-30T12:24:32.526Z,17.00
2023-03-30T12:27:06.805Z,17.20
2023-03-30T12:32:28.964Z,17.40
2023-03-30T12:35:01.243Z,17.50
2023-03-30T12:37:36.090Z,17.30
2023-03-30T12:40:10.890Z,17.20
2023-03-30T12:42:47.107Z,17.20
2023-03-30T12:45:33.399Z,17.50
2023-03-30T12:48:20.893Z,17.70
2023-03-30T12:51:07.572Z,17.70
2023-03-30T12:54:14.559Z,17.80
2023-03-30T12:56:54.298Z,18.00
2023-03-30T12:59:51.675Z,18.00
2023-03-30T13:02:42.278Z,17.90
2023-03-30T13:05:22.301Z,18.00
2023-03-30T13:07:53.873Z,17.80
2023-03-30T13:10:45.005Z,17.70
2023-03-30T13:13:48.586Z,17.90
2023-03-30T13:16:53.726Z,18.00
2023-03-30T13:19:30.481Z,17.90
2023-03-30T13:22:09.299Z,17.70
2023-03-30T13:24:46.604Z,18.20
2023-03-30T13:27:33.865Z,18.10
2023-03-30T13:30:07.863Z,18.30
2023-03-30T13:32:51.586Z,18.20
2023-03-30T13:35:48.970Z,17.90
2023-03-30T13:38:34.963Z,17.70
2023-03-30T13:41:18.786Z,17.60
2023-03-30T13:44:12.805Z,17.80
2023-03-30T13:46:52.647Z,17.80
2023-03-30T13:49:38.675Z,17.60
2023-03-30T13:52:16.254Z,17.50
2023-03-30T13:54:47.105Z,17.60
2023-03-30T13:57:23.633Z,17.50
2023-03-30T13:59:57.618Z,17.50
2023-03-30T14:02:31.920Z,17.50
2023-03-30T14:05:21.854Z,17.50
2023-03-30T14:07:59.656Z,17.40
2023-03-30T14:10:30.870Z,17.30
2023-03-30T14:13:01.060Z,17.20
2023-03-30T14:15:38.976Z,16.60
2023-03-30T14:18:09.124Z,14.00
2023-03-30T14:20:49.940Z,12.90
2023-03-30T14:23:31.571Z,12.20
2023-03-30T14:26:04.069Z,12.20
2023-03-30T14:28:41.627Z,12.30
2023-03-30T14:31:18.853Z,12.00
2023-03-30T14:33:49.551Z,11.70
2023-03-30T14:36:22.171Z,11.80
2023-03-30T14:38:57.822Z,11.70
2023-03-30T14:41:31.685Z,11.70
2023-03-30T14:44:05.326Z,11.60
2023-03-30T14:46:42.674Z,11.50
2023-03-30T14:49:21.265Z,11.50
2023-03-30T14:51:53.918Z,11.50
2023-03-30T14:54:28.590Z,11.60
2023-03-30T14:57:00.425Z,11.60
2023-03-30T14:59:31.851Z,11.50
2023-03-30T15:02:03.768Z,11.50
2023-03-30T15:04:38.804Z,11.50
2023-03-30T15:07:08.843Z,11.60
2023-03-30T15:09:42.260Z,11.50
2023-03-30T15:12:23.605Z,11.60
2023-03-30T15:14:56.776Z,11.60
2023-03-30T15:17:29.347Z,11.50
2023-03-30T15:20:02.012Z,11.50
2023-03-30T15:22:35.624Z,11.50
2023-03-30T15:25:12.231Z,11.50
2023-03-30T15:27:45.475Z,11.40
2023-03-30T15:30:30.182Z,11.40
2023-03-30T15:33:00.825Z,11.40
2023-03-30T15:35:34.010Z,11.40
2023-03-30T15:38:06.835Z,11.40
2023-03-30T15:40:42.567Z,11.40
2023-03-30T15:43:17.875Z,11.40
2023-03-30T15:45:52.197Z,11.40
2023-03-30T15:48:26.920Z,11.30
2023-03-30T15:51:04.083Z,11.30
2023-03-30T15:53:42.519Z,11.30
2023-03-30T15:56:25.018Z,11.40
2023-03-30T15:58:55.093Z,11.30
2023-03-30T16:01:25.534Z,11.30
2023-03-30T16:03:59.083Z,11.30
2023-03-30T16:06:29.029Z,11.20
2023-03-30T16:08:58.965Z,11.20
2023-03-30T16:11:31.565Z,11.20
2023-03-30T16:14:02.682Z,11.20
2023-03-30T16:16:32.735Z,11.10
2023-03-30T16:19:03.096Z,11.10
2023-03-30T16:21:33.046Z,11.10
2023-03-30T16:24:03.100Z,11.10
2023-03-30T16:26:36.120Z,11.00
2023-03-30T16:29:06.232Z,11.00
2023-03-30T16:31:37.555Z,11.00
2023-03-30T16:34:07.825Z,11.10
2023-03-30T16:36:38.214Z,11.00
2023-03-30T16:39:09.855Z,11.00
2023-03-30T16:41:43.205Z,11.00
2023-03-30T16:44:13.413Z,11.00
2023-03-30T16:46:43.516Z,11.00
2023-03-30T16:49:17.004Z,11.00
2023-03-30T16:51:47.884Z,11.10
2023-03-30T16:54:30.328Z,11.10
2023-03-30T16:57:05.763Z,11.10
2023-03-30T16:59:36.552Z,11.10
2023-03-30T17:02:06.502Z,11.10
2023-03-30T17:04:36.524Z,11.00
2023-03-30T17:07:06.644Z,11.10
2023-03-30T17:09:36.585Z,11.10
2023-03-30T17:12:09.377Z,11.10
2023-03-30T17:14:42.591Z,11.20
2023-03-30T17:17:13.047Z,11.10
2023-03-30T17:19:42.975Z,11.10
2023-03-30T17:22:12.952Z,11.10
2023-03-30T17:24:43.355Z,11.10
2023-03-30T17:27:16.590Z,11.10
2023-03-30T17:29:46.527Z,11.10
2023-03-30T17:32:16.781Z,11.10
2023-03-30T17:34:46.722Z,11.00
2023-03-30T17:37:16.672Z,11.00
2023-03-30T17:39:46.671Z,11.00
2023-03-30T17:42:19.185Z,11.00
2023-03-30T17:44:49.127Z,10.90
2023-03-30T17:47:19.069Z,10.90
2023-03-30T17:49:48.999Z,10.90
2023-03-30T17:52:18.976Z,10.90
2023-03-30T17:54:48.897Z,10.80
2023-03-30T17:57:21.463Z,10.80
2023-03-30T17:59:51.434Z,10.80
2023-03-30T18:02:21.426Z,10.80
2023-03-30T18:04:51.357Z,10.70
2023-03-30T18:07:21.294Z,10.60
2023-03-30T18:09:51.854Z,10.60
2023-03-30T18:12:24.373Z,10.60
2023-03-30T18:14:54.318Z,10.60
2023-03-30T18:17:24.371Z,10.50
2023-03-30T18:19:54.359Z,10.50
2023-03-30T18:22:24.300Z,10.50
2023-03-30T18:24:54.273Z,10.50
2023-03-30T18:27:26.801Z,10.40
2023-03-30T18:29:56.954Z,10.40
2023-03-30T18:32:37.046Z,10.40
2023-03-30T18:35:14.402Z,10.30
2023-03-30T18:37:44.822Z,10.30
2023-03-30T18:40:20.047Z,10.30
2023-03-30T18:42:52.903Z,10.30
2023-03-30T18:45:27.111Z,10.30
2023-03-30T18:47:57.508Z,10.30
2023-03-30T18:50:35.177Z,10.20
2023-03-30T18:53:07.193Z,10.20
2023-03-30T18:55:39.936Z,10.20
2023-03-30T18:58:18.444Z,10.20
2023-03-30T19:00:49.113Z,10.20
2023-03-30T19:03:20.104Z,10.20
2023-03-30T19:05:52.297Z,10.20
2023-03-30T19:08:24.787Z,10.20
2023-03-30T19:10:57.672Z,10.20
2023-03-30T19:13:30.455Z,10.20
2023-03-30T19:16:04.395Z,10.20
2023-03-30T19:18:34.460Z,10.20
2023-03-30T19:21:04.637Z,10.30
2023-03-30T19:23:34.717Z,10.30
2023-03-30T19:26:04.721Z,10.30
2023-03-30T19:28:37.666Z,10.30
2023-03-30T19:31:10.306Z,10.40
2023-03-30T19:33:41.099Z,10.50
2023-03-30T19:36:12.189Z,10.50
2023-03-30T19:38:44.254Z,10.50
2023-03-30T19:41:14.410Z,10.50
2023-03-30T19:43:50.255Z,10.50
2023-03-30T19:46:20.804Z,10.40
2023-03-30T19:48:50.835Z,10.30
2023-03-30T19:51:21.680Z,10.20
2023-03-30T19:53:51.626Z,10.10
2023-03-30T19:56:21.770Z,10.10
2023-03-30T19:58:54.286Z,9.90
2023-03-30T20:01:24.383Z,9.90
2023-03-30T20:03:54.440Z,9.90
2023-03-30T20:06:24.464Z,9.80
2023-03-30T20:08:55.199Z,9.80
2023-03-30T20:11:25.339Z,9.70
2023-03-30T20:13:57.883Z,9.80
2023-03-30T20:16:30.205Z,9.80
2023-03-30T20:19:00.207Z,9.70
2023-03-30T20:21:30.184Z,9.60
2023-03-30T20:24:00.632Z,9.50
2023-03-30T20:26:31.158Z,9.50
2023-03-30T20:29:04.136Z,9.50
2023-03-30T20:31:34.743Z,9.40
2023-03-30T20:34:04.752Z,9.40
2023-03-30T20:36:34.780Z,9.40
2023-03-30T20:39:06.078Z,9.40
2023-03-30T20:41:38.509Z,9.40
2023-03-30T20:44:14.004Z,9.40
2023-03-30T20:46:44.742Z,9.40
2023-03-30T20:49:15.927Z,9.30
2023-03-30T20:51:46.576Z,9.30
2023-03-30T20:54:17.564Z,9.20
2023-03-30T20:56:47.790Z,9.20
2023-03-30T20:59:21.333Z,9.20
2023-03-30T21:01:55.220Z,9.20
2023-03-30T21:04:25.464Z,9.20
2023-03-30T21:06:56.068Z,9.20
2023-03-30T21:09:26.529Z,9.20
2023-03-30T21:11:56.636Z,9.20
2023-03-30T21:14:29.170Z,9.20
2023-03-30T21:16:59.183Z,9.20
2023-03-30T21:19:29.296Z,9.20
2023-03-30T21:22:00.409Z,9.20
2023-03-30T21:24:30.761Z,9.10
2023-03-30T21:27:00.720Z,9.20
2023-03-30T21:29:33.337Z,9.20
2023-03-30T21:32:03.294Z,9.20
2023-03-30T21:34:33.456Z,9.20
2023-03-30T21:37:03.546Z,9.20
2023-03-30T21:39:33.610Z,9.20
2023-03-30T21:42:05.321Z,9.20
2023-03-30T21:44:39.656Z,9.20
2023-03-30T21:47:09.593Z,9.10
2023-03-30T21:49:39.616Z,9.20
2023-03-30T21:52:09.599Z,9.10
2023-03-30T21:54:39.534Z,9.20
2023-03-30T21:57:09.520Z,9.20
2023-03-30T21:59:42.094Z,9.20
2023-03-30T22:02:12.099Z,9.20
2023-03-30T22:04:42.090Z,9.20
2023-03-30T22:07:12.210Z,9.20
2023-03-30T22:09:42.454Z,9.30
2023-03-30T22:12:12.392Z,9.30
2023-03-30T22:14:44.908Z,9.30
2023-03-30T22:17:14.844Z,9.30
2023-03-30T22:19:44.776Z,9.40
2023-03-30T22:22:14.726Z,9.30
2023-03-30T22:24:44.659Z,9.40
2023-03-30T22:27:15.899Z,9.40
2023-03-30T22:29:48.422Z,9.40
2023-03-30T22:32:19.008Z,9.40
2023-03-30T22:34:49.261Z,9.50
2023-03-30T22:37:19.206Z,9.50
2023-03-30T22:39:49.224Z,9.50
2023-03-30T22:42:19.236Z,9.50
2023-03-30T22:44:52.294Z,9.50
2023-03-30T22:47:22.359Z,9.50
2023-03-30T22:49:52.900Z,9.50
2023-03-30T22:52:23.276Z,9.50
2023-03-30T22:54:53.232Z,9.50
2023-03-30T22:57:23.207Z,9.50
2023-03-30T22:59:55.910Z,9.50
2023-03-30T23:02:26.040Z,9.50
2023-03-30T23:04:55.969Z,9.50
2023-03-30T23:07:25.915Z,9.50
2023-03-30T23:09:58.456Z,9.50
2023-03-30T23:12:28.404Z,9.50
2023-03-30T23:15:01.694Z,9.50
2023-03-30T23:17:32.576Z,9.50
2023-03-30T23:20:02.567Z,9.50
2023-03-30T23:22:32.508Z,9.40
2023-03-30T23:25:02.455Z,9.40
2023-03-30T23:27:32.735Z,9.40
2023-03-30T23:30:05.811Z,9.40
2023-03-30T23:32:36.923Z,9.30
2023-03-30T23:35:08.035Z,9.30
2023-03-30T23:37:38.003Z,9.30
2023-03-30T23:40:10.413Z,9.30
2023-03-30T23:42:40.523Z,9.30
2023-03-30T23:45:14.053Z,9.30
2023-03-30T23:47:44.087Z,9.30
2023-03-30T23:50:14.199Z,9.40
2023-03-30T23:52:44.177Z,9.40
2023-03-30T23:55:15.746Z,9.40
2023-03-30T23:57:45.731Z,9.40
